Tiempo atmosférico en la estación meteorológica de Velilla del Río Carrión, Camporredondo de Alba, Palencia (1575 m.)



Fecha
DESCASC
Temp. máxima en grados centígrados (hora)
DESCASC
Temp. mínima en grados centígrados (hora)
DESCASC
Temp. media en grados centígrados
DESCASC
Racha de viento máxima en m/sg (hora)
DESCASC
Velocidad máxima media en intervalos de 10 minutos(hora)
DESCASC
Precipitaciones diarias en mm
DESCASC
Precipitaciones de 00:00 a 06:00 en mm
DESCASC
Precipitaciones de 06:00 a 12:00 en mm
DESCASC
Precipitaciones de 12:00 a 18:00 en mm
DESCASC
Precipitaciones de 18:00 a 24:00 en mm
DESCASC
17-10-2019 13.3 (17:00) 6.8 (06:10) 10.1 15.56 (14:50) 8.89 (14:30) 9 8 1 0 0
16-10-2019 6.9 (21:50) 4.1 (07:50) 5.5 15 (23:50) 9.44 (22:40) 8.2 0.4 1.8 0.6 5.4
15-10-2019 8.1 (14:00) -0.4 (08:40) 3.9 14.72 (20:20) 9.44 (20:20) 2 0.2 0 0 1.8
14-10-2019 11.2 (02:20) 1.1 (22:30) 6.1 26.39 (02:00) 17.22 (02:00) 15 0.2 8.2 4.2 2.4
13-10-2019 15.1 (00:20) 8.2 (00:00) 11.7 28.89 (00:30) 18.89 (00:40) 0 0 0 0 0
12-10-2019 18.8 (16:10) 10 (00:00) 14.4 28.89 (23:30) 17.78 (23:30) 0 0 0 0 0
10-10-2019 19.7 (16:40) 3.5 (00:00) 11.6 6.39 (17:50) 4.17 (17:30) 0 0 0 0 0
09-10-2019 17.3 (16:30) 4.4 (00:00) 10.8 8.89 (16:00) 5.28 (16:00) 0 0 0 0 0
08-10-2019 22.6 (15:30) 10.3 (00:00) 16.5 11.39 (17:50) 8.33 (17:50) 0 0 0 0 0
07-10-2019 23.5 (17:00) 9.3 (00:00) 16.4 7.78 (17:20) 5.28 (00:30) 0 0 0 0 0
06-10-2019 19.3 (15:10) 7.4 (00:00) 13.3 9.17 (15:40) 6.67 (20:50) 0 0 0 0 0
05-10-2019 20.8 (16:10) 9.7 (08:00) 15.2 8.89 (14:40) 5.83 (18:00) 0 0 0 0 0
04-10-2019 19.9 (14:50) 9.8 (00:00) 14.8 8.33 (16:20) 5 (16:20) 0 0 0 0 0
03-10-2019 21.1 (17:20) 6.5 (00:00) 13.8 11.39 (16:10) 7.5 (16:10) 0 0 0 0 0
02-10-2019 17.6 (15:10) 5.4 (00:00) 11.5 8.61 (08:20) 5.56 (08:20) 0 0 0 0 0
01-10-2019 19.2 (16:00) 8.4 (00:00) 13.8 12.5 (18:20) 7.5 (18:20) 0 0 0 0 0
30-09-2019 20.7 (16:40) 10 (00:00) 15.4 11.67 (17:10) 6.94 (17:10) 0 0 0 0 0
29-09-2019 20.8 (17:20) 10.8 (00:00) 15.8 12.22 (18:40) 8.33 (18:10) 0 0 0 0 0
28-09-2019 20.5 (15:50) 6.7 (00:00) 13.6 10 (17:20) 6.67 (17:40) 0 0 0 0 0
27-09-2019 19.4 (15:20) 7.8 (00:00) 13.6 11.39 (14:40) 7.78 (14:40) 0 0 0 0 0
26-09-2019 20.6 (16:40) 10.2 (00:00) 15.4 9.17 (18:10) 6.39 (18:10) 0 0 0 0 0
25-09-2019 16.4 (15:30) 5.1 (00:00) 10.7 9.72 (13:50) 5.83 (13:30) 0 0 0 0 0
24-09-2019 15.3 (17:50) 8.1 (00:00) 11.7 16.11 (05:10) 11.39 (05:10) 0.2 0 0.2 0 0
23-09-2019 13.7 (15:20) 7 (00:00) 10.3 11.39 (17:30) 8.61 (17:30) 0 0 0 0 0
22-09-2019 14.4 (16:50) 5.7 (00:00) 10 23.61 (01:50) 14.72 (01:50) 2.8 2.6 0.2 0 0
21-09-2019 12.6 (13:30) 9.4 (00:00) 11 21.67 (23:20) 13.89 (21:00) 21 2.2 0.4 3.8 14.6
20-09-2019 21.1 (16:10) 10.6 (00:00) 15.9 12.22 (14:20) 8.61 (22:20) 17.8 0 0 0 17.8

Gráficas

Temp. máximas Temp. mínimas Temp. medias Precipitaciones Rachas de viento máximas Velocidades máximas media en intervalos de 10 minutos

Datos horarios

Fecha y hora oficial Temperatura (ºC) Velocidad del viento (km/h) Dirección del viento Racha (km/h) Dirección de racha Precipitación (mm) Presión (hPa) Tendencia (hPa) Humedad (%)
2019-10-19 23:00:00 3.8 4 Nordeste 10 Este 1.6 -- -- 99
2019-10-19 22:00:00 3.7 3 Sudeste 12 Sudeste 3 -- -- 99
2019-10-19 21:00:00 3.6 5 Oeste 14 Sudoeste 1 -- -- 99
2019-10-19 20:00:00 3.7 7 Sudoeste 24 Noroeste 3.6 -- -- 99
2019-10-19 19:00:00 5.7 14 Noroeste 22 Noroeste 9 -- -- 99
2019-10-19 18:00:00 6 6 Oeste 31 Sudoeste 3.8 -- -- 99
2019-10-19 17:00:00 6 26 Sudoeste 50 Sudoeste 3.4 -- -- 99
2019-10-19 16:00:00 5.3 19 Oeste 43 Sudoeste 3.8 -- -- 99
2019-10-19 15:00:00 5.4 22 Oeste 56 Oeste 0.6 -- -- 99
2019-10-19 14:00:00 5.1 40 Oeste 61 Oeste 4.8 -- -- 99
2019-10-19 13:00:00 5.6 21 Sudoeste 37 Oeste 1.8 -- -- 99
2019-10-19 12:00:00 5.9 10 Oeste 26 Oeste 1.2 -- -- 99
2019-10-19 11:00:00 5.6 12 Oeste 24 Oeste 1.8 -- -- 99
2019-10-19 10:00:00 5.5 11 Oeste 27 Sudoeste 0.6 -- -- 99
2019-10-19 09:00:00 5.4 11 Oeste 25 Oeste 0.4 -- -- 99
2019-10-19 08:00:00 5.3 16 Oeste 46 Oeste 0.6 -- -- 99
2019-10-19 07:00:00 5.3 13 Oeste 43 Oeste 0.4 -- -- 99
2019-10-19 06:00:00 5.1 23 Oeste 40 Oeste 0.8 -- -- 99
2019-10-19 05:00:00 5.4 25 Oeste 43 Oeste 0.4 -- -- 98
2019-10-19 04:00:00 5.3 26 Oeste 50 Oeste 1.4 -- -- 98
2019-10-19 03:00:00 5.3 30 Oeste 49 Oeste 0.2 -- -- 98
2019-10-19 02:00:00 5.3 23 Oeste 45 Oeste 0 -- -- 98
2019-10-19 01:00:00 5.3 26 Oeste 47 Oeste 0.6 -- -- 98
2019-10-19 00:00:00 5.7 18 Oeste 33 Oeste 0 -- -- 97
2019-10-18 23:00:00 5.8 19 Oeste 32 Oeste 0 -- -- 95
2019-10-18 22:00:00 5.8 16 Oeste 25 Oeste 0 -- -- 91
2019-10-18 21:00:00 5.5 13 Oeste 28 Oeste 0 -- -- 92
2019-10-18 20:00:00 5.6 18 Oeste 36 Oeste 0 -- -- 90
2019-10-18 19:00:00 5.9 21 Oeste 35 Oeste 0 -- -- 89
2019-10-18 18:00:00 6.2 23 Oeste 48 Oeste 0 -- -- 84
2019-10-18 17:00:00 7 26 Oeste 41 Oeste 0 -- -- 79
2019-10-18 16:00:00 8.6 26 Oeste 42 Oeste 0 -- -- 69
2019-10-18 15:00:00 9.3 30 Oeste 45 Oeste 0 -- -- 66
2019-10-18 14:00:00 8.9 17 Oeste 28 Oeste 0 -- -- 70
2019-10-18 13:00:00 10.2 11 Sudoeste 19 Oeste 0 -- -- 68
2019-10-18 12:00:00 11.9 3 Oeste 10 Sudoeste 0 -- -- 55
2019-10-18 11:00:00 7.6 3 Nordeste 5 Este 0 -- -- 80
2019-10-18 10:00:00 6.5 0 Calma 5 Sudoeste 0 -- -- 79
2019-10-18 09:00:00 6.7 0 Calma 12 Oeste 0 -- -- 61
2019-10-18 08:00:00 6.7 5 Oeste 10 Oeste 0 -- -- 72
2019-10-18 07:00:00 6.6 8 Oeste 19 Oeste 0 -- -- 84
2019-10-18 06:00:00 7.1 15 Oeste 27 Oeste 0 -- -- 82
2019-10-18 05:00:00 7.1 19 Oeste 27 Oeste 0 -- -- 90
2019-10-18 04:00:00 7.2 21 Noroeste 29 Oeste 0 -- -- 98
2019-10-18 03:00:00 8.1 15 Oeste 41 Oeste 0 -- -- 98
2019-10-18 02:00:00 8.2 26 Oeste 46 Oeste 0 -- -- 95
2019-10-18 01:00:00 7.6 18 Oeste 28 Oeste 0 -- -- 87
2019-10-18 00:00:00 7.9 18 Oeste 35 Oeste 0 -- -- 83
2019-10-17 23:00:00 8.2 21 Oeste 32 Oeste 0 -- -- 78
2019-10-17 22:00:00 8.4 20 Oeste 32 Oeste 0 -- -- 75
2019-10-17 21:00:00 8.7 22 Oeste 35 Oeste 0 -- -- 73
2019-10-17 20:00:00 8.9 22 Oeste 34 Oeste 0 -- -- 82
2019-10-17 19:00:00 10 23 Oeste 55 Oeste 0 -- -- 78
2019-10-17 18:00:00 12.2 23 Oeste 46 Oeste 0 -- -- 70
2019-10-17 17:00:00 13.3 22 Oeste 47 Oeste 0 -- -- 69
2019-10-17 16:00:00 10.6 26 Oeste 48 Oeste 0 -- -- 76
2019-10-17 15:00:00 12.3 26 Oeste 56 Oeste 0 -- -- 74
2019-10-17 14:00:00 11.1 30 Oeste 48 Oeste 0 -- -- 97
2019-10-17 13:00:00 9.2 22 Oeste 36 Oeste 0 -- -- 96
2019-10-17 12:00:00 8.1 27 Oeste 50 Oeste 0.2 -- -- 99
2019-10-17 11:00:00 7.8 21 Oeste 38 Oeste 0.2 -- -- 99
2019-10-17 10:00:00 7.5 21 Oeste 40 Oeste 0.2 -- -- 99
2019-10-17 09:00:00 7.1 24 Oeste 49 Oeste 0 -- -- 99
2019-10-17 08:00:00 7 17 Oeste 26 Oeste 0.4 -- -- 99
2019-10-17 07:00:00 6.9 14 Oeste 28 Oeste 0 -- -- 99
2019-10-17 06:00:00 6.9 19 Oeste 36 Oeste 0.4 -- -- 99
2019-10-17 05:00:00 6.9 23 Oeste 42 Oeste 0.6 -- -- 99
2019-10-17 04:00:00 6.9 18 Oeste 37 Oeste 1 -- -- 99
2019-10-17 03:00:00 6.9 21 Oeste 53 Oeste 3.4 -- -- 99
2019-10-17 02:00:00 7 29 Oeste 51 Oeste 1.4 -- -- 99
2019-10-17 01:00:00 7 28 Oeste 46 Oeste 1.2 -- -- 99
2019-10-17 00:00:00 6.9 31 Oeste 54 Oeste 0.8 -- -- 99
2019-10-16 23:00:00 6.9 31 Oeste 51 Oeste 0.2 -- -- 99
2019-10-16 22:00:00 6.9 27 Oeste 44 Oeste 1.6 -- -- 99
2019-10-16 21:00:00 6.8 23 Oeste 37 Oeste 0.4 -- -- 99
2019-10-16 20:00:00 6.7 21 Oeste 33 Oeste 0.2 -- -- 99
2019-10-16 19:00:00 6.6 14 Oeste 23 Oeste 2.2 -- -- 99
2019-10-16 18:00:00 6.6 14 Oeste 27 Oeste 0.2 -- -- 99
2019-10-16 17:00:00 6.5 11 Oeste 29 Sudoeste 0 -- -- 99
2019-10-16 16:00:00 6 19 Oeste 37 Oeste 0 -- -- 99
2019-10-16 15:00:00 6.1 8 Oeste 30 Oeste 0.2 -- -- 99
2019-10-16 14:00:00 5.5 19 Oeste 31 Oeste 0 -- -- 99
2019-10-16 13:00:00 5.2 18 Oeste 32 Oeste 0.2 -- -- 99
2019-10-16 12:00:00 5 19 Oeste 38 Oeste 0 -- -- 99
2019-10-16 11:00:00 4.6 24 Oeste 41 Oeste 0.2 -- -- 99
2019-10-16 10:00:00 4.3 22 Oeste 37 Oeste 0.2 -- -- 99
2019-10-16 09:00:00 4.2 20 Oeste 36 Oeste 0.2 -- -- 99
2019-10-16 08:00:00 4.1 18 Oeste 32 Oeste 0.4 -- -- 99
2019-10-16 07:00:00 4.2 17 Oeste 32 Oeste 0.8 -- -- 99
2019-10-16 06:00:00 4.2 20 Oeste 34 Oeste 0 -- -- 99
2019-10-16 05:00:00 4.5 18 Oeste 37 Oeste 0 -- -- 99
2019-10-16 04:00:00 4.6 21 Oeste 44 Oeste 0.2 -- -- 98
2019-10-16 03:00:00 4.7 25 Oeste 39 Oeste 0 -- -- 98
2019-10-16 02:00:00 4.6 23 Oeste 48 Oeste 0.2 -- -- 98
2019-10-16 01:00:00 4.5 25 Oeste 47 Oeste 0 -- -- 98
2019-10-16 00:00:00 4.2 28 Oeste 49 Oeste 0.4 -- -- 98
2019-10-15 23:00:00 3.9 27 Oeste 47 Oeste 0.6 -- -- 98
2019-10-15 22:00:00 4.1 23 Oeste 41 Oeste 0.6 -- -- 97
2019-10-15 21:00:00 4.2 24 Oeste 53 Oeste 0 -- -- 97
2019-10-15 20:00:00 4.5 30 Oeste 44 Oeste 0.2 -- -- 96
2019-10-15 19:00:00 4.5 14 Oeste 24 Oeste 0 -- -- 93
2019-10-15 18:00:00 4.2 16 Oeste 39 Oeste 0 -- -- 94
2019-10-15 17:00:00 6.2 23 Oeste 40 Oeste 0 -- -- 81
2019-10-15 16:00:00 5.2 24 Oeste 41 Oeste 0 -- -- 84
2019-10-15 15:00:00 6.5 23 Oeste 39 Oeste 0 -- -- 75
2019-10-15 14:00:00 8.1 18 Oeste 33 Oeste 0 -- -- 70
2019-10-15 13:00:00 6.6 18 Oeste 32 Oeste 0 -- -- 74
2019-10-15 12:00:00 4.6 19 Oeste 34 Oeste 0 -- -- 80
2019-10-15 11:00:00 3.5 21 Oeste 32 Oeste 0 -- -- 87
2019-10-15 10:00:00 1.5 22 Noroeste 29 Noroeste 0 -- -- 92
2019-10-15 09:00:00 -0.1 25 Oeste 34 Oeste 0 -- -- 97
2019-10-15 08:00:00 -0.2 26 Oeste 33 Oeste 0 -- -- 96
2019-10-15 07:00:00 0 23 Oeste 34 Oeste 0 -- -- 94
2019-10-15 06:00:00 0.4 17 Oeste 24 Oeste 0 -- -- 89
2019-10-15 05:00:00 1 14 Oeste 25 Oeste 0 -- -- 87
2019-10-15 04:00:00 0.1 23 Oeste 34 Noroeste 0 -- -- 97
2019-10-15 03:00:00 0.4 25 Oeste 35 Noroeste 0 -- -- 98
2019-10-15 02:00:00 0.5 19 Oeste 44 Noroeste 0.2 -- -- 98
2019-10-15 01:00:00 0.9 15 Oeste 36 Norte 0 -- -- 98
2019-10-15 00:00:00 1.2 15 Oeste 27 Oeste 0 -- -- 98
2019-10-14 23:00:00 1.3 17 Oeste 33 Norte 0.4 -- -- 98
2019-10-14 22:00:00 1.9 16 Noroeste 28 Noroeste 0.8 -- -- 97
2019-10-14 21:00:00 2.9 17 Oeste 30 Oeste 0.4 -- -- 97
2019-10-14 20:00:00 2.6 21 Oeste 34 Oeste 0.2 -- -- 96
2019-10-14 19:00:00 3.5 4 Oeste 45 Noroeste 0.6 -- -- 97
2019-10-14 18:00:00 4.7 24 Oeste 46 Oeste 1.2 -- -- 96
2019-10-14 17:00:00 4.9 19 Oeste 56 Oeste 0.4 -- -- 96
2019-10-14 16:00:00 4.9 18 Oeste 55 Oeste 1 -- -- 96
2019-10-14 15:00:00 4.4 28 Oeste 57 Sudoeste 1.4 -- -- 95
2019-10-14 14:00:00 5.1 32 Oeste 55 Oeste 0 -- -- 93
2019-10-14 13:00:00 5.1 27 Oeste 55 Oeste 0.2 -- -- 95
2019-10-14 12:00:00 4.7 30 Oeste 70 Oeste 2.4 -- -- 96
2019-10-14 11:00:00 5.5 39 Oeste 84 Oeste 1.2 -- -- 96
2019-10-14 10:00:00 7 44 Oeste 94 Oeste 3.8 -- -- 94
2019-10-14 09:00:00 9 42 Oeste 69 Oeste 0.6 -- -- 90
2019-10-14 08:00:00 8.9 27 Oeste 55 Noroeste 0.2 -- -- 89
2019-10-14 07:00:00 10.2 26 Oeste 59 Oeste 0 -- -- 81
2019-10-14 06:00:00 9.9 27 Oeste 56 Oeste 0.2 -- -- 85
2019-10-14 05:00:00 9.8 36 Oeste 60 Oeste 0 -- -- 84
2019-10-14 04:00:00 10.7 35 Oeste 66 Sudoeste 0 -- -- 76
2019-10-14 03:00:00 10.9 47 Oeste 80 Oeste 0 -- -- 72
2019-10-14 02:00:00 11 62 Oeste 95 Oeste 0 -- -- 68
2019-10-14 01:00:00 10.7 54 Oeste 86 Oeste 0 -- -- 71
2019-10-14 00:00:00 10.9 54 Oeste 83 Oeste 0 -- -- 66
2019-10-13 23:00:00 10.8 44 Oeste 79 Oeste 0 -- -- 67
2019-10-13 22:00:00 10.9 41 Oeste 65 Oeste 0 -- -- 68
2019-10-13 21:00:00 11.5 39 Oeste 59 Oeste 0 -- -- 65
2019-10-13 20:00:00 11.6 28 Oeste 53 Sudoeste 0 -- -- 72
2019-10-13 19:00:00 12 28 Oeste 48 Oeste 0 -- -- 73
2019-10-13 18:00:00 12 24 Oeste 42 Sudoeste 0 -- -- 76
2019-10-13 17:00:00 11 22 Sudoeste 41 Oeste 0 -- -- 82
2019-10-13 16:00:00 10.2 22 Oeste 44 Oeste 0 -- -- 88
2019-10-13 15:00:00 9.1 23 Sudoeste 41 Oeste 0 -- -- 92
2019-10-13 14:00:00 9.5 20 Sudoeste 38 Oeste 0 -- -- 88
2019-10-13 13:00:00 9 20 Oeste 44 Oeste 0 -- -- 90
2019-10-13 12:00:00 8.8 36 Oeste 54 Oeste 0 -- -- 89
2019-10-13 11:00:00 9.3 29 Oeste 52 Oeste 0 -- -- 82
2019-10-13 10:00:00 8.7 36 Oeste 65 Oeste 0 -- -- 82
2019-10-13 09:00:00 8.4 36 Oeste 73 Oeste 0 -- -- 84
2019-10-13 08:00:00 9.3 54 Oeste 85 Oeste 0 -- -- 84
2019-10-13 07:00:00 10.1 52 Oeste 90 Oeste 0 -- -- 83
2019-10-13 06:00:00 10.9 53 Oeste 87 Oeste 0 -- -- 84
2019-10-13 05:00:00 11.4 49 Oeste 79 Oeste 0 -- -- 81
2019-10-13 04:00:00 12.1 48 Oeste 71 Oeste 0 -- -- 77
2019-10-13 03:00:00 11.9 39 Oeste 75 Oeste 0 -- -- 70
2019-10-13 02:00:00 12.8 46 Oeste 88 Oeste 0 -- -- 64
2019-10-13 01:00:00 14.5 62 Oeste 104 Oeste 0 -- -- 56
2019-10-13 00:00:00 14.9 51 Oeste 104 Oeste 0 -- -- 54
2019-10-12 23:00:00 15.8 54 Oeste 89 Sudoeste 0 -- -- 51
2019-10-12 22:00:00 16 54 Oeste 92 Sudoeste 0 -- -- 50
2019-10-12 21:00:00 16 39 Oeste 76 Oeste 0 -- -- 49
2019-10-12 20:00:00 16.8 50 Oeste 89 Oeste 0 -- -- 46
2019-10-12 19:00:00 17.4 50 Oeste 91 Oeste 0 -- -- 44
2019-10-12 18:00:00 17.7 54 Oeste 87 Oeste 0 -- -- 45
2019-10-12 17:00:00 17.3 31 Oeste 75 Oeste 0 -- -- 59
2019-10-12 16:00:00 18.6 50 Oeste 82 Oeste 0 -- -- 49
2019-10-12 15:00:00 17.2 48 Oeste 75 Oeste 0 -- -- 56
2019-10-12 14:00:00 17.4 46 Oeste 72 Oeste 0 -- -- 57
2019-10-12 13:00:00 16.1 42 Oeste 69 Oeste 0 -- -- 61
2019-10-12 12:00:00 14.7 34 Oeste 55 Oeste 0 -- -- 70
2019-10-12 11:00:00 13.5 37 Oeste 53 Oeste 0 -- -- 75
2019-10-12 10:00:00 12.1 31 Oeste 45 Oeste 0 -- -- 79
2019-10-12 09:00:00 10.1 26 Oeste 48 Oeste 0 -- -- 88
2019-10-12 08:00:00 10.2 21 Oeste 42 Oeste 0 -- -- 85
2019-10-12 07:00:00 11.5 20 Oeste 41 Oeste 0 -- -- 77
2019-10-12 06:00:00 11.5 22 Oeste 54 Oeste 0 -- -- 79
2019-10-12 05:00:00 12.8 26 Oeste 48 Sudoeste 0 -- -- 73
2019-10-12 04:00:00 12.6 26 Oeste 50 Oeste 0 -- -- 76
2019-10-12 03:00:00 13 28 Oeste 46 Oeste 0 -- -- 76
2019-10-12 02:00:00 13.6 29 Oeste 50 Oeste 0 -- -- 73
2019-10-12 01:00:00 14.2 32 Oeste 54 Oeste 0 -- -- 68
2019-10-12 00:00:00 14.1 19 Oeste 35 Oeste 0 -- -- 63
2019-10-11 23:00:00 15.7 16 Oeste 28 Oeste 0 -- -- 58
2019-10-11 22:00:00 15.4 14 Oeste 25 Oeste 0 -- -- 58
2019-10-11 21:00:00 15.3 14 Oeste 37 Oeste 0 -- -- 59
2019-10-11 20:00:00 15.9 23 Oeste 44 Oeste 0 -- -- 57
2019-10-11 19:00:00 17.5 23 Oeste 45 Oeste 0 -- -- 52
2019-10-11 18:00:00 19.4 33 Oeste 59 Oeste 0 -- -- 48
2019-10-11 17:00:00 19.6 33 Oeste 60 Oeste 0 -- -- 47
2019-10-11 16:00:00 20 31 Oeste 60 Oeste 0 -- -- 44
2019-10-11 15:00:00 19.4 37 Oeste 58 Oeste 0 -- -- 45
2019-10-11 14:00:00 18.7 31 Oeste 59 Oeste 0 -- -- 46
2019-10-11 13:00:00 17.8 30 Oeste 45 Oeste 0 -- -- 44
2019-10-11 12:00:00 16.7 19 Oeste 28 Oeste 0 -- -- 47
2019-10-11 11:00:00 14.9 13 Oeste 19 Noroeste 0 -- -- 49
2019-10-11 10:00:00 13.3 14 Noroeste 18 Noroeste 0 -- -- 48
2019-10-11 09:00:00 11.5 14 Oeste 18 Oeste 0 -- -- 53
2019-10-11 08:00:00 11.6 9 Oeste 13 Oeste 0 -- -- 53
2019-10-11 07:00:00 11.4 13 Oeste 18 Noroeste 0 -- -- 52
2019-10-11 06:00:00 11 14 Oeste 18 Oeste 0 -- -- 53
2019-10-11 05:00:00 10.1 12 Oeste 18 Noroeste 0 -- -- 56
2019-10-11 04:00:00 11.3 15 Noroeste 17 Noroeste 0 -- -- 52
2019-10-11 03:00:00 12 6 Oeste 11 Oeste 0 -- -- 49
2019-10-11 02:00:00 11.8 6 Oeste 14 Noroeste 0 -- -- 50
2019-10-11 01:00:00 10.8 9 Noroeste 13 Noroeste 0 -- -- 56
2019-10-11 00:00:00 10.5 6 Oeste 9 Norte 0 -- -- 59
2019-10-10 23:00:00 11.1 7 Noroeste 9 Noroeste 0 -- -- 57
2019-10-10 22:00:00 11.4 0 Calma 7 Sudoeste 0 -- -- 54
2019-10-10 21:00:00 12 0 Calma 9 Sudoeste 0 -- -- 53
2019-10-10 20:00:00 12.9 6 Sudoeste 17 Oeste 0 -- -- 49
2019-10-10 19:00:00 16.5 10 Sudoeste 18 Oeste 0 -- -- 46
2019-10-10 18:00:00 18.2 13 Oeste 23 Sudoeste 0 -- -- 43
2019-10-10 17:00:00 19.2 6 Oeste 17 Sudoeste 0 -- -- 41
2019-10-10 16:00:00 18.6 7 Sudoeste 19 Oeste 0 -- -- 41
2019-10-10 15:00:00 17.9 10 Sudoeste 17 Sudoeste 0 -- -- 41
2019-10-10 14:00:00 18.5 4 Sur 10 Sur 0 -- -- 45
2019-10-10 13:00:00 14.2 6 Este 14 Sur 0 -- -- 46
2019-10-10 12:00:00 11.9 6 Este 12 Este 0 -- -- 54
2019-10-10 11:00:00 9 6 Este 13 Este 0 -- -- 66
2019-10-10 10:00:00 7.7 5 Este 10 Este 0 -- -- 72
2019-10-10 09:00:00 4.1 8 Este 11 Este 0 -- -- 78
2019-10-10 08:00:00 4.8 7 Este 9 Este 0 -- -- 80
2019-10-10 07:00:00 4.7 4 Este 10 Nordeste 0 -- -- 88
2019-10-10 06:00:00 3.8 9 Este 12 Este 0 -- -- 95
2019-10-10 05:00:00 5.2 4 Noroeste 8 Noroeste 0 -- -- 81
2019-10-10 04:00:00 4.5 4 Noroeste 6 Noroeste 0 -- -- 84
2019-10-10 03:00:00 4.4 0 Calma 5 Noroeste 0 -- -- 88
2019-10-10 02:00:00 4.9 4 Oeste 9 Oeste 0 -- -- 85
2019-10-10 01:00:00 5.5 3 Oeste 6 Noroeste 0 -- -- 80
2019-10-10 00:00:00 5.6 3 Oeste 6 Oeste 0 -- -- 82
2019-10-09 23:00:00 6 0 Calma 8 Noroeste 0 -- -- 82
2019-10-09 22:00:00 6.8 6 Noroeste 8 Noroeste 0 -- -- 78
2019-10-09 21:00:00 7.4 0 Calma 15 Noroeste 0 -- -- 78
2019-10-09 20:00:00 8.4 10 Oeste 23 Oeste 0 -- -- 70
2019-10-09 19:00:00 12.5 15 Oeste 25 Oeste 0 -- -- 56
2019-10-09 18:00:00 15.5 13 Oeste 25 Oeste 0 -- -- 44
2019-10-09 17:00:00 15.9 13 Oeste 29 Sudoeste 0 -- -- 36
2019-10-09 16:00:00 16.6 19 Oeste 32 Oeste 0 -- -- 34
2019-10-09 15:00:00 15 15 Oeste 27 Oeste 0 -- -- 35
2019-10-09 14:00:00 14.7 12 Oeste 24 Oeste 0 -- -- 40
2019-10-09 13:00:00 13.6 11 Oeste 24 Oeste 0 -- -- 37
2019-10-09 12:00:00 11.6 11 Oeste 25 Oeste 0 -- -- 55
2019-10-09 11:00:00 9.2 11 Oeste 19 Oeste 0 -- -- 67
2019-10-09 10:00:00 7.1 10 Oeste 20 Oeste 0 -- -- 80
2019-10-09 09:00:00 4.4 13 Oeste 22 Oeste 0 -- -- 98
2019-10-09 08:00:00 4.9 14 Oeste 18 Oeste 0 -- -- 98
2019-10-09 07:00:00 6.1 13 Oeste 20 Noroeste 0 -- -- 98
2019-10-09 06:00:00 6.8 15 Oeste 22 Oeste 0 -- -- 98
2019-10-09 05:00:00 7.7 15 Oeste 26 Oeste 0 -- -- 97
2019-10-09 04:00:00 8.8 10 Oeste 16 Oeste 0 -- -- 96
2019-10-09 03:00:00 10.4 9 Oeste 13 Oeste 0 -- -- 96
2019-10-09 02:00:00 9.3 3 Oeste 20 Noroeste 0 -- -- 97
2019-10-09 01:00:00 9.6 11 Noroeste 16 Noroeste 0 -- -- 95
2019-10-09 00:00:00 10.3 3 Noroeste 9 Nordeste 0 -- -- 94
2019-10-08 23:00:00 11.7 4 Este 10 Nordeste 0 -- -- 92
2019-10-08 22:00:00 12.5 8 Este 12 Este 0 -- -- 87
2019-10-08 21:00:00 13 3 Nordeste 8 Oeste 0 -- -- 85
2019-10-08 20:00:00 16 8 Oeste 37 Oeste 0 -- -- 69
2019-10-08 19:00:00 19.3 25 Oeste 38 Oeste 0 -- -- 53
2019-10-08 18:00:00 20.9 26 Oeste 41 Oeste 0 -- -- 50
2019-10-08 17:00:00 21.9 22 Oeste 39 Sudoeste 0 -- -- 46
2019-10-08 16:00:00 22.4 22 Oeste 37 Oeste 0 -- -- 45
2019-10-08 15:00:00 21.4 18 Oeste 38 Oeste 0 -- -- 46
2019-10-08 14:00:00 21.3 19 Oeste 34 Oeste 0 -- -- 46
2019-10-08 13:00:00 20.1 17 Oeste 27 Oeste 0 -- -- 49
2019-10-08 12:00:00 19 18 Oeste 27 Oeste 0 -- -- 45
2019-10-08 11:00:00 18.5 5 Noroeste 15 Oeste 0 -- -- 43
2019-10-08 10:00:00 15.9 13 Oeste 15 Oeste 0 -- -- 44
2019-10-08 09:00:00 13.5 10 Oeste 14 Oeste 0 -- -- 51
2019-10-08 08:00:00 13.9 10 Oeste 17 Oeste 0 -- -- 50
2019-10-08 07:00:00 13.3 15 Oeste 21 Noroeste 0 -- -- 53
2019-10-08 06:00:00 13.5 17 Oeste 19 Oeste 0 -- -- 53
2019-10-08 05:00:00 13.1 12 Oeste 16 Oeste 0 -- -- 53
2019-10-08 04:00:00 13.7 8 Oeste 14 Oeste 0 -- -- 52
2019-10-08 03:00:00 13.9 8 Oeste 15 Noroeste 0 -- -- 51
2019-10-08 02:00:00 14.2 14 Oeste 15 Oeste 0 -- -- 51
2019-10-08 01:00:00 13.7 11 Oeste 14 Oeste 0 -- -- 54
2019-10-08 00:00:00 13.9 12 Oeste 15 Oeste 0 -- -- 52
2019-10-07 23:00:00 14.5 10 Oeste 13 Oeste 0 -- -- 52
2019-10-07 22:00:00 14.8 4 Oeste 7 Noroeste 0 -- -- 52
2019-10-07 21:00:00 15.2 6 Noroeste 9 Noroeste 0 -- -- 47
2019-10-07 20:00:00 16.5 8 Oeste 20 Oeste 0 -- -- 46
2019-10-07 19:00:00 20.1 9 Oeste 26 Sudoeste 0 -- -- 42
2019-10-07 18:00:00 22.1 9 Oeste 28 Oeste 0 -- -- 39
2019-10-07 17:00:00 23.5 8 Sudoeste 22 Sudoeste 0 -- -- 37
2019-10-07 16:00:00 21.6 9 Sudoeste 18 Sudoeste 0 -- -- 40
2019-10-07 15:00:00 22.2 8 Sudoeste 17 Sur 0 -- -- 38
2019-10-07 14:00:00 21.6 5 Oeste 15 Oeste 0 -- -- 36
2019-10-07 13:00:00 19.7 9 Oeste 14 Sudoeste 0 -- -- 33
2019-10-07 12:00:00 18.4 3 Sudoeste 11 Oeste 0 -- -- 25
2019-10-07 11:00:00 16.5 3 Sudoeste 11 Noroeste 0 -- -- 34
2019-10-07 10:00:00 13.3 6 Noroeste 14 Noroeste 0 -- -- 28
2019-10-07 09:00:00 11.2 4 Noroeste 11 Oeste 0 -- -- 30
2019-10-07 08:00:00 10.4 5 Oeste 19 Noroeste 0 -- -- 28
2019-10-07 07:00:00 10.6 18 Noroeste 24 Noroeste 0 -- -- 27
2019-10-07 06:00:00 9.6 5 Noroeste 10 Noroeste 0 -- -- 35
2019-10-07 05:00:00 10.2 4 Noroeste 9 Oeste 0 -- -- 34
2019-10-07 04:00:00 11.2 5 Noroeste 15 Noroeste 0 -- -- 32
2019-10-07 03:00:00 11.1 12 Oeste 21 Oeste 0 -- -- 33
2019-10-07 02:00:00 11.3 15 Oeste 25 Oeste 0 -- -- 33
2019-10-07 01:00:00 10.8 14 Oeste 24 Oeste 0 -- -- 44
2019-10-07 00:00:00 9.9 14 Oeste 30 Oeste 0 -- -- 62
2019-10-06 23:00:00 10.5 18 Oeste 31 Oeste 0 -- -- 54
2019-10-06 22:00:00 10.8 14 Oeste 28 Oeste 0 -- -- 51
2019-10-06 21:00:00 11.9 23 Oeste 31 Noroeste 0 -- -- 58
2019-10-06 20:00:00 12.9 19 Noroeste 26 Oeste 0 -- -- 58
2019-10-06 19:00:00 16.4 15 Oeste 27 Noroeste 0 -- -- 53
2019-10-06 18:00:00 17.3 20 Noroeste 32 Oeste 0 -- -- 50
2019-10-06 17:00:00 18.3 17 Oeste 33 Noroeste 0 -- -- 43
2019-10-06 16:00:00 18.9 16 Oeste 33 Oeste 0 -- -- 41
2019-10-06 15:00:00 18.8 14 Oeste 32 Oeste 0 -- -- 50
2019-10-06 14:00:00 17.4 16 Oeste 30 Oeste 0 -- -- 46
2019-10-06 13:00:00 16.4 12 Oeste 23 Oeste 0 -- -- 56
2019-10-06 12:00:00 13.5 9 Oeste 17 Oeste 0 -- -- 69
2019-10-06 11:00:00 10.7 4 Noroeste 11 Noroeste 0 -- -- 78
2019-10-06 10:00:00 9.8 8 Oeste 20 Oeste 0 -- -- 82
2019-10-06 09:00:00 9 13 Oeste 21 Oeste 0 -- -- 82
2019-10-06 08:00:00 9 11 Oeste 19 Noroeste 0 -- -- 81
2019-10-06 07:00:00 8.1 15 Noroeste 22 Noroeste 0 -- -- 82
2019-10-06 06:00:00 7.6 16 Noroeste 21 Noroeste 0 -- -- 70
2019-10-06 05:00:00 8.1 15 Oeste 24 Oeste 0 -- -- 62
2019-10-06 04:00:00 10.2 22 Oeste 28 Noroeste 0 -- -- 52
2019-10-06 03:00:00 9.2 14 Oeste 22 Oeste 0 -- -- 77
2019-10-06 02:00:00 11 10 Oeste 12 Oeste 0 -- -- 76
2019-10-06 01:00:00 12 5 Oeste 7 Noroeste 0 -- -- 74
2019-10-06 00:00:00 11.8 0 Calma 6 Noroeste 0 -- -- 76
2019-10-05 23:00:00 12.2 3 Noroeste 5 Norte 0 -- -- 76
2019-10-05 22:00:00 13 4 Norte 13 Noroeste 0 -- -- 69
2019-10-05 21:00:00 13.8 10 Noroeste 17 Noroeste 0 -- -- 66
2019-10-05 20:00:00 14.7 12 Oeste 21 Oeste 0 -- -- 63
2019-10-05 19:00:00 18.3 14 Oeste 28 Oeste 0 -- -- 53
2019-10-05 18:00:00 19.7 21 Oeste 31 Oeste 0 -- -- 47
2019-10-05 17:00:00 20.5 18 Oeste 30 Sudoeste 0 -- -- 46
2019-10-05 16:00:00 20 15 Oeste 30 Oeste 0 -- -- 47
2019-10-05 15:00:00 20 18 Oeste 32 Oeste 0 -- -- 40
2019-10-05 14:00:00 20.1 15 Oeste 25 Noroeste 0 -- -- 44
2019-10-05 13:00:00 18.4 10 Oeste 21 Oeste 0 -- -- 56
2019-10-05 12:00:00 17 8 Oeste 14 Oeste 0 -- -- 62
2019-10-05 11:00:00 15.6 5 Oeste 10 Noroeste 0 -- -- 66
2019-10-05 10:00:00 15 3 Noroeste 6 Noroeste 0 -- -- 60
2019-10-05 09:00:00 10.5 5 Norte 6 Noroeste 0 -- -- 73
2019-10-05 08:00:00 9.7 3 Norte 5 Oeste 0 -- -- 80
2019-10-05 07:00:00 10.9 5 Noroeste 13 Noroeste 0 -- -- 82
2019-10-05 06:00:00 11.4 10 Noroeste 13 Noroeste 0 -- -- 79
2019-10-05 05:00:00 11 12 Noroeste 17 Noroeste 0 -- -- 83
2019-10-05 04:00:00 11.2 11 Noroeste 15 Noroeste 0 -- -- 82
2019-10-05 03:00:00 11.2 6 Oeste 13 Oeste 0 -- -- 82
2019-10-05 02:00:00 11.4 5 Noroeste 12 Noroeste 0 -- -- 81
2019-10-05 01:00:00 12.4 8 Noroeste 11 Noroeste 0 -- -- 77
2019-10-05 00:00:00 12 0 Calma 6 Sudoeste 0 -- -- 78
2019-10-04 23:00:00 11.9 3 Sur 8 Noroeste 0 -- -- 80
2019-10-04 22:00:00 12.1 8 Noroeste 10 Noroeste 0 -- -- 80
2019-10-04 21:00:00 11.9 0 Calma 7 Este 0 -- -- 86
2019-10-04 20:00:00 14.1 0 Calma 18 Noroeste 0 -- -- 71
2019-10-04 19:00:00 17.2 14 Oeste 26 Oeste 0 -- -- 58
2019-10-04 18:00:00 18.9 15 Oeste 29 Oeste 0 -- -- 53
2019-10-04 17:00:00 18.4 16 Oeste 30 Oeste 0 -- -- 55
2019-10-04 16:00:00 19.3 13 Oeste 26 Oeste 0 -- -- 52
2019-10-04 15:00:00 18.4 14 Sudoeste 25 Oeste 0 -- -- 58
2019-10-04 14:00:00 18.4 10 Sudoeste 24 Oeste 0 -- -- 60
2019-10-04 13:00:00 16.2 10 Oeste 22 Oeste 0 -- -- 66
2019-10-04 12:00:00 14.3 5 Oeste 10 Noroeste 0 -- -- 71
2019-10-04 11:00:00 15 3 Oeste 6 Noroeste 0 -- -- 67
2019-10-04 10:00:00 12.7 3 Oeste 12 Oeste 0 -- -- 69
2019-10-04 09:00:00 9.9 9 Oeste 11 Noroeste 0 -- -- 81
2019-10-04 08:00:00 9.8 7 Oeste 10 Noroeste 0 -- -- 81
2019-10-04 07:00:00 10.1 2 Noroeste 6 Sudoeste 0 -- -- 83
2019-10-04 06:00:00 10.5 3 Sudoeste 6 Oeste 0 -- -- 81
2019-10-04 05:00:00 10.8 3 Oeste 6 Sudoeste 0 -- -- 80
2019-10-04 04:00:00 11 3 Oeste 6 Noroeste 0 -- -- 83
2019-10-04 03:00:00 11 5 Oeste 12 Oeste 0 -- -- 83
2019-10-04 02:00:00 11.1 9 Oeste 12 Oeste 0 -- -- 79
2019-10-04 01:00:00 11.4 6 Oeste 12 Oeste 0 -- -- 71
2019-10-04 00:00:00 11.6 5 Oeste 9 Noroeste 0 -- -- 66
2019-10-03 23:00:00 12.3 2 Oeste 6 Noroeste 0 -- -- 65
2019-10-03 22:00:00 12 2 Norte 6 Norte 0 -- -- 66
2019-10-03 21:00:00 13 7 Norte 17 Noroeste 0 -- -- 64
2019-10-03 20:00:00 15.5 8 Noroeste 18 Oeste 0 -- -- 52
2019-10-03 19:00:00 18.6 12 Oeste 31 Oeste 0 -- -- 38
2019-10-03 18:00:00 20.2 19 Oeste 30 Oeste 0 -- -- 37
2019-10-03 17:00:00 20.6 21 Oeste 41 Oeste 0 -- -- 31
2019-10-03 16:00:00 20.5 26 Oeste 37 Oeste 0 -- -- 29
2019-10-03 15:00:00 19.9 20 Oeste 35 Oeste 0 -- -- 35
2019-10-03 14:00:00 19.4 19 Oeste 33 Oeste 0 -- -- 37
2019-10-03 13:00:00 17.8 14 Oeste 27 Oeste 0 -- -- 36
2019-10-03 12:00:00 15.1 10 Oeste 17 Oeste 0 -- -- 51
2019-10-03 11:00:00 15.2 4 Oeste 12 Oeste 0 -- -- 49
2019-10-03 10:00:00 12.8 0 Calma 13 Oeste 0 -- -- 55
2019-10-03 09:00:00 7.3 6 Noroeste 10 Oeste 0 -- -- 81
2019-10-03 08:00:00 6.7 9 Noroeste 18 Noroeste 0 -- -- 86
2019-10-03 07:00:00 7.2 13 Noroeste 23 Noroeste 0 -- -- 85
2019-10-03 06:00:00 8.1 21 Noroeste 27 Oeste 0 -- -- 80
2019-10-03 05:00:00 8.1 21 Oeste 26 Noroeste 0 -- -- 81
2019-10-03 04:00:00 7.3 19 Oeste 26 Oeste 0 -- -- 86
2019-10-03 03:00:00 7.8 19 Noroeste 23 Oeste 0 -- -- 83
2019-10-03 02:00:00 8.4 18 Noroeste 21 Noroeste 0 -- -- 80
2019-10-03 01:00:00 7.8 10 Oeste 17 Oeste 0 -- -- 85
2019-10-03 00:00:00 8.4 5 Oeste 8 Noroeste 0 -- -- 82
2019-10-02 23:00:00 8.7 5 Oeste 9 Oeste 0 -- -- 81
2019-10-02 22:00:00 8.4 9 Oeste 14 Oeste 0 -- -- 82
2019-10-02 21:00:00 9.3 7 Oeste 16 Oeste 0 -- -- 78
2019-10-02 20:00:00 10.4 10 Oeste 18 Oeste 0 -- -- 75
2019-10-02 19:00:00 14 10 Oeste 24 Noroeste 0 -- -- 63
2019-10-02 18:00:00 16.2 9 Oeste 23 Sudoeste 0 -- -- 57
2019-10-02 17:00:00 16 12 Oeste 25 Oeste 0 -- -- 54
2019-10-02 16:00:00 17.1 7 Sudoeste 18 Sudoeste 0 -- -- 52
2019-10-02 15:00:00 16.9 4 Oeste 14 Oeste 0 -- -- 52
2019-10-02 14:00:00 15.7 4 Oeste 23 Oeste 0 -- -- 51
2019-10-02 13:00:00 12.7 10 Oeste 27 Oeste 0 -- -- 61
2019-10-02 12:00:00 11.8 6 Noroeste 22 Oeste 0 -- -- 63
2019-10-02 11:00:00 9.5 16 Oeste 27 Oeste 0 -- -- 78
2019-10-02 10:00:00 9.8 10 Oeste 18 Noroeste 0 -- -- 73
2019-10-02 09:00:00 5.7 4 Nordeste 31 Oeste 0 -- -- 84
2019-10-02 08:00:00 5.7 17 Sudoeste 26 Sudoeste 0 -- -- 89
2019-10-02 07:00:00 6.6 7 Noroeste 22 Nordeste 0 -- -- 79
2019-10-02 06:00:00 6.7 11 Norte 30 Norte 0 -- -- 73
2019-10-02 05:00:00 6.3 8 Norte 23 Nordeste 0 -- -- 73
2019-10-02 04:00:00 6.4 9 Noroeste 16 Norte 0 -- -- 78
2019-10-02 03:00:00 6.7 15 Noroeste 23 Oeste 0 -- -- 83
2019-10-02 02:00:00 7.1 18 Oeste 27 Oeste 0 -- -- 85
2019-10-02 01:00:00 7.7 17 Oeste 25 Oeste 0 -- -- 84
2019-10-02 00:00:00 8.4 14 Oeste 22 Oeste 0 -- -- 78
2019-10-01 23:00:00 9.1 13 Oeste 22 Oeste 0 -- -- 77
2019-10-01 22:00:00 9.7 12 Oeste 20 Oeste 0 -- -- 80
2019-10-01 21:00:00 11.2 16 Oeste 28 Oeste 0 -- -- 75
2019-10-01 20:00:00 13.1 14 Oeste 25 Noroeste 0 -- -- 64
2019-10-01 19:00:00 17 13 Oeste 45 Sudoeste 0 -- -- 51
2019-10-01 18:00:00 15.8 24 Oeste 41 Oeste 0 -- -- 53
2019-10-01 17:00:00 17.4 13 Oeste 30 Oeste 0 -- -- 52
2019-10-01 16:00:00 19.2 16 Oeste 36 Oeste 0 -- -- 49
2019-10-01 15:00:00 18 21 Oeste 42 Oeste 0 -- -- 52
2019-10-01 14:00:00 17.4 17 Oeste 33 Oeste 0 -- -- 53
2019-10-01 13:00:00 17.6 15 Oeste 29 Oeste 0 -- -- 53
2019-10-01 12:00:00 15.7 15 Oeste 31 Oeste 0 -- -- 62
2019-10-01 11:00:00 15.1 7 Oeste 15 Noroeste 0 -- -- 57
2019-10-01 10:00:00 13 9 Oeste 21 Oeste 0 -- -- 60
2019-10-01 09:00:00 12.1 16 Oeste 26 Oeste 0 -- -- 58
2019-10-01 08:00:00 12 14 Oeste 19 Noroeste 0 -- -- 64
2019-10-01 07:00:00 12.4 10 Oeste 15 Oeste 0 -- -- 64
2019-10-01 06:00:00 12.8 12 Oeste 17 Oeste 0 -- -- 62
2019-10-01 05:00:00 13 11 Oeste 15 Oeste 0 -- -- 63
2019-10-01 04:00:00 13.5 14 Oeste 21 Oeste 0 -- -- 68
2019-10-01 03:00:00 13.5 17 Oeste 22 Oeste 0 -- -- 70
2019-10-01 02:00:00 13.8 13 Oeste 19 Noroeste 0 -- -- 73
2019-10-01 01:00:00 14 17 Oeste 20 Oeste 0 -- -- 74
2019-10-01 00:00:00 14.8 5 Oeste 13 Sudoeste 0 -- -- 68
2019-09-30 23:00:00 15.2 9 Sudoeste 15 Oeste 0 -- -- 70
2019-09-30 22:00:00 15.4 6 Oeste 10 Oeste 0 -- -- 71
2019-09-30 21:00:00 14.9 3 Noroeste 18 Oeste 0 -- -- 73
2019-09-30 20:00:00 15.2 12 Oeste 30 Oeste 0 -- -- 71
2019-09-30 19:00:00 18.5 22 Oeste 36 Oeste 0 -- -- 61
2019-09-30 18:00:00 19.9 21 Oeste 42 Oeste 0 -- -- 57
2019-09-30 17:00:00 20.7 19 Oeste 33 Oeste 0 -- -- 53
2019-09-30 16:00:00 20.4 18 Oeste 36 Oeste 0 -- -- 53
2019-09-30 15:00:00 19.5 18 Oeste 28 Oeste 0 -- -- 51
2019-09-30 14:00:00 19.2 11 Oeste 20 Oeste 0 -- -- 53
2019-09-30 13:00:00 19.7 3 Norte 10 Sudoeste 0 -- -- 49
2019-09-30 12:00:00 17.8 4 Sudeste 9 Este 0 -- -- 52
2019-09-30 11:00:00 17.7 3 Este 6 Este 0 -- -- 46
2019-09-30 10:00:00 15.8 3 Nordeste 8 Norte 0 -- -- 46
2019-09-30 09:00:00 10.9 5 Norte 12 Noroeste 0 -- -- 57
2019-09-30 08:00:00 10.9 5 Noroeste 10 Noroeste 0 -- -- 59
2019-09-30 07:00:00 10.5 4 Noroeste 8 Noroeste 0 -- -- 68
2019-09-30 06:00:00 10.4 3 Noroeste 8 Norte 0 -- -- 79
2019-09-30 05:00:00 10.9 0 Calma 6 Sudoeste 0 -- -- 77
2019-09-30 04:00:00 11.3 4 Norte 9 Norte 0 -- -- 71
2019-09-30 03:00:00 13.5 2 Sur 4 Sur 0 -- -- 61
2019-09-30 02:00:00 13.8 3 Sudoeste 6 Noroeste 0 -- -- 74
2019-09-30 01:00:00 14.5 5 Noroeste 10 Oeste 0 -- -- 72
2019-09-30 00:00:00 14.6 3 Oeste 12 Oeste 0 -- -- 75
2019-09-29 23:00:00 14.6 11 Oeste 14 Oeste 0 -- -- 77
2019-09-29 22:00:00 14.8 14 Oeste 19 Oeste 0 -- -- 75
2019-09-29 21:00:00 15.2 12 Oeste 29 Oeste 0 -- -- 73
2019-09-29 20:00:00 16.3 20 Oeste 42 Oeste 0 -- -- 65
2019-09-29 19:00:00 17.3 23 Oeste 44 Oeste 0 -- -- 61
2019-09-29 18:00:00 18.4 28 Oeste 44 Oeste 0 -- -- 57
2019-09-29 17:00:00 20.3 24 Oeste 43 Oeste 0 -- -- 51
2019-09-29 16:00:00 19.8 25 Oeste 40 Oeste 0 -- -- 48
2019-09-29 15:00:00 19.3 26 Oeste 39 Oeste 0 -- -- 45
2019-09-29 14:00:00 19.5 21 Oeste 36 Oeste 0 -- -- 43
2019-09-29 13:00:00 18 22 Oeste 37 Oeste 0 -- -- 45
2019-09-29 12:00:00 17.6 18 Oeste 37 Oeste 0 -- -- 45
2019-09-29 11:00:00 14.7 23 Oeste 34 Oeste 0 -- -- 50
2019-09-29 10:00:00 13.1 18 Oeste 26 Noroeste 0 -- -- 34
2019-09-29 09:00:00 11.2 18 Oeste 25 Noroeste 0 -- -- 34
2019-09-29 08:00:00 11.4 18 Oeste 31 Oeste 0 -- -- 38
2019-09-29 07:00:00 11.2 18 Oeste 28 Noroeste 0 -- -- 45
2019-09-29 06:00:00 12 17 Oeste 21 Noroeste 0 -- -- 47
2019-09-29 05:00:00 12.3 14 Oeste 21 Oeste 0 -- -- 49
2019-09-29 04:00:00 12.9 15 Oeste 18 Noroeste 0 -- -- 49
2019-09-29 03:00:00 12.7 14 Oeste 19 Noroeste 0 -- -- 50
2019-09-29 02:00:00 12.9 12 Oeste 23 Oeste 0 -- -- 50
2019-09-29 01:00:00 13.3 17 Noroeste 23 Noroeste 0 -- -- 51
2019-09-29 00:00:00 13.5 11 Oeste 16 Oeste 0 -- -- 51
2019-09-28 23:00:00 13.1 13 Oeste 19 Noroeste 0 -- -- 53
2019-09-28 22:00:00 13.2 11 Oeste 19 Oeste 0 -- -- 51
2019-09-28 21:00:00 12.8 14 Oeste 23 Oeste 0 -- -- 55
2019-09-28 20:00:00 15 12 Oeste 24 Oeste 0 -- -- 47
2019-09-28 19:00:00 18.2 17 Oeste 30 Oeste 0 -- -- 40
2019-09-28 18:00:00 19.3 20 Oeste 36 Oeste 0 -- -- 38
2019-09-28 17:00:00 20.2 20 Oeste 33 Oeste 0 -- -- 34
2019-09-28 16:00:00 20.1 19 Oeste 31 Sudoeste 0 -- -- 32
2019-09-28 15:00:00 19.1 18 Oeste 34 Oeste 0 -- -- 32
2019-09-28 14:00:00 17.7 20 Oeste 30 Oeste 0 -- -- 39
2019-09-28 13:00:00 17.1 14 Oeste 22 Oeste 0 -- -- 38
2019-09-28 12:00:00 13.7 10 Oeste 17 Oeste 0 -- -- 61
2019-09-28 11:00:00 13.1 6 Noroeste 12 Noroeste 0 -- -- 63
2019-09-28 10:00:00 10.5 5 Oeste 9 Noroeste 0 -- -- 73
2019-09-28 09:00:00 6.8 4 Oeste 12 Noroeste 0 -- -- 92
2019-09-28 08:00:00 7.7 8 Oeste 9 Noroeste 0 -- -- 89
2019-09-28 07:00:00 7.8 9 Noroeste 13 Noroeste 0 -- -- 92
2019-09-28 06:00:00 8.9 8 Noroeste 12 Noroeste 0 -- -- 77
2019-09-28 05:00:00 8.6 9 Noroeste 10 Noroeste 0 -- -- 81
2019-09-28 04:00:00 9.3 4 Noroeste 10 Oeste 0 -- -- 83
2019-09-28 03:00:00 10 4 Sudoeste 8 Sudoeste 0 -- -- 79
2019-09-28 02:00:00 10.4 5 Sudoeste 8 Sudoeste 0 -- -- 79
2019-09-28 01:00:00 10.7 3 Sudeste 7 Sudeste 0 -- -- 82
2019-09-28 00:00:00 10.8 3 Este 5 Oeste 0 -- -- 84
2019-09-27 23:00:00 11.7 0 Calma 8 Sudoeste 0 -- -- 72
2019-09-27 22:00:00 12.3 5 Oeste 15 Oeste 0 -- -- 69
2019-09-27 21:00:00 12.8 11 Oeste 21 Oeste 0 -- -- 67
2019-09-27 20:00:00 13.8 10 Oeste 31 Oeste 0 -- -- 70
2019-09-27 19:00:00 16 23 Oeste 41 Oeste 0 -- -- 62
2019-09-27 18:00:00 18.3 22 Oeste 40 Oeste 0 -- -- 57
2019-09-27 17:00:00 19.1 23 Oeste 36 Oeste 0 -- -- 54
2019-09-27 16:00:00 16.9 19 Oeste 37 Oeste 0 -- -- 59
2019-09-27 15:00:00 17.9 21 Oeste 41 Oeste 0 -- -- 55
2019-09-27 14:00:00 17.3 22 Oeste 37 Oeste 0 -- -- 51
2019-09-27 13:00:00 16.6 19 Oeste 30 Oeste 0 -- -- 55
2019-09-27 12:00:00 15.1 13 Oeste 21 Oeste 0 -- -- 62
2019-09-27 11:00:00 14.2 7 Oeste 15 Noroeste 0 -- -- 64
2019-09-27 10:00:00 12.1 12 Noroeste 16 Noroeste 0 -- -- 67
2019-09-27 09:00:00 9.9 8 Oeste 18 Oeste 0 -- -- 62
2019-09-27 08:00:00 9.4 12 Oeste 15 Oeste 0 -- -- 62
2019-09-27 07:00:00 10.9 10 Noroeste 15 Oeste 0 -- -- 42
2019-09-27 06:00:00 11.4 11 Oeste 13 Oeste 0 -- -- 44
2019-09-27 05:00:00 11.1 12 Noroeste 17 Oeste 0 -- -- 50
2019-09-27 04:00:00 11.8 14 Noroeste 16 Noroeste 0 -- -- 48
2019-09-27 03:00:00 12.8 10 Oeste 13 Oeste 0 -- -- 47
2019-09-27 02:00:00 13.5 12 Oeste 14 Oeste 0 -- -- 45
2019-09-27 01:00:00 13.6 10 Oeste 14 Oeste 0 -- -- 49
2019-09-27 00:00:00 14.1 9 Oeste 13 Noroeste 0 -- -- 49
2019-09-26 23:00:00 13.6 8 Oeste 10 Oeste 0 -- -- 53
2019-09-26 22:00:00 13.3 0 Calma 14 Oeste 0 -- -- 55
2019-09-26 21:00:00 14.2 10 Noroeste 16 Oeste 0 -- -- 55
2019-09-26 20:00:00 15.4 9 Oeste 28 Sudoeste 0 -- -- 54
2019-09-26 19:00:00 18.2 18 Oeste 33 Oeste 0 -- -- 47
2019-09-26 18:00:00 19.1 23 Oeste 32 Oeste 0 -- -- 43
2019-09-26 17:00:00 20.3 15 Oeste 32 Oeste 0 -- -- 40
2019-09-26 16:00:00 20.2 16 Oeste 32 Sudoeste 0 -- -- 40
2019-09-26 15:00:00 18.8 13 Oeste 28 Oeste 0 -- -- 40
2019-09-26 14:00:00 18.2 19 Oeste 30 Oeste 0 -- -- 38
2019-09-26 13:00:00 17.3 17 Oeste 27 Oeste 0 -- -- 43
2019-09-26 12:00:00 15.4 12 Oeste 24 Noroeste 0 -- -- 50
2019-09-26 11:00:00 13.3 9 Oeste 17 Noroeste 0 -- -- 46
2019-09-26 10:00:00 13.1 9 Oeste 13 Oeste 0 -- -- 48
2019-09-26 09:00:00 11.4 10 Oeste 14 Oeste 0 -- -- 48
2019-09-26 08:00:00 11.3 8 Sudoeste 14 Sudoeste 0 -- -- 55
2019-09-26 07:00:00 11.1 9 Oeste 14 Oeste 0 -- -- 63
2019-09-26 06:00:00 10.4 10 Oeste 18 Oeste 0 -- -- 77
2019-09-26 05:00:00 10.6 11 Oeste 18 Oeste 0 -- -- 79
2019-09-26 04:00:00 10.6 9 Oeste 19 Oeste 0 -- -- 77
2019-09-26 03:00:00 10.9 14 Oeste 21 Oeste 0 -- -- 75
2019-09-26 02:00:00 10.5 10 Oeste 15 Oeste 0 -- -- 78
2019-09-26 01:00:00 11 9 Oeste 14 Oeste 0 -- -- 76
2019-09-26 00:00:00 10.8 9 Oeste 12 Oeste 0 -- -- 77
2019-09-25 23:00:00 10.6 7 Oeste 13 Noroeste 0 -- -- 80
2019-09-25 22:00:00 11 12 Oeste 16 Oeste 0 -- -- 78
2019-09-25 21:00:00 11.1 13 Oeste 21 Oeste 0 -- -- 78
2019-09-25 20:00:00 12.3 10 Sudoeste 21 Oeste 0 -- -- 74
2019-09-25 19:00:00 14 12 Oeste 26 Oeste 0 -- -- 67
2019-09-25 18:00:00 16.1 17 Oeste 28 Oeste 0 -- -- 61
2019-09-25 17:00:00 14.9 14 Oeste 25 Oeste 0 -- -- 65
2019-09-25 16:00:00 15.4 14 Oeste 28 Oeste 0 -- -- 62
2019-09-25 15:00:00 15.5 14 Oeste 31 Sudoeste 0 -- -- 59
2019-09-25 14:00:00 15 20 Oeste 35 Oeste 0 -- -- 59
2019-09-25 13:00:00 13.7 17 Oeste 29 Oeste 0 -- -- 62
2019-09-25 12:00:00 12.6 10 Oeste 23 Oeste 0 -- -- 67
2019-09-25 11:00:00 11.3 9 Oeste 16 Noroeste 0 -- -- 71
2019-09-25 10:00:00 8.6 4 Oeste 15 Noroeste 0 -- -- 77
2019-09-25 09:00:00 5.6 6 Oeste 11 Oeste 0 -- -- 88
2019-09-25 08:00:00 5.5 9 Oeste 14 Oeste 0 -- -- 87
2019-09-25 07:00:00 5.7 6 Oeste 12 Noroeste 0 -- -- 86
2019-09-25 06:00:00 5.5 10 Noroeste 24 Oeste 0 -- -- 88
2019-09-25 05:00:00 5.4 17 Oeste 23 Oeste 0 -- -- 90
2019-09-25 04:00:00 6.4 14 Oeste 17 Noroeste 0 -- -- 93
2019-09-25 03:00:00 7 12 Noroeste 18 Noroeste 0 -- -- 96
2019-09-25 02:00:00 7 6 Norte 17 Noroeste 0 -- -- 95
2019-09-25 01:00:00 8 12 Noroeste 17 Noroeste 0 -- -- 85
2019-09-25 00:00:00 9.1 9 Oeste 14 Oeste 0 -- -- 78
2019-09-24 23:00:00 9.4 8 Oeste 21 Oeste 0 -- -- 77
2019-09-24 22:00:00 10 16 Oeste 24 Oeste 0 -- -- 75
2019-09-24 21:00:00 10.7 8 Oeste 29 Oeste 0 -- -- 70
2019-09-24 20:00:00 12.3 19 Oeste 46 Oeste 0 -- -- 66
2019-09-24 19:00:00 13.4 35 Oeste 51 Oeste 0 -- -- 63
2019-09-24 18:00:00 14.7 27 Oeste 44 Oeste 0 -- -- 68
2019-09-24 17:00:00 14.2 30 Oeste 49 Oeste 0 -- -- 73
2019-09-24 16:00:00 14 32 Oeste 54 Oeste 0 -- -- 78
2019-09-24 15:00:00 11.3 33 Oeste 50 Oeste 0 -- -- 97
2019-09-24 14:00:00 12.9 31 Oeste 43 Oeste 0 -- -- 88
2019-09-24 13:00:00 11.9 27 Oeste 42 Oeste 0 -- -- 89
2019-09-24 12:00:00 11.1 28 Oeste 44 Oeste 0 -- -- 92
2019-09-24 11:00:00 10.6 31 Oeste 55 Oeste 0 -- -- 95
2019-09-24 10:00:00 10.5 31 Oeste 47 Oeste 0 -- -- 96
2019-09-24 09:00:00 9.6 26 Oeste 40 Oeste 0 -- -- 97
2019-09-24 08:00:00 9 25 Oeste 30 Oeste 0 -- -- 95
2019-09-24 07:00:00 8.8 21 Oeste 29 Oeste 0.2 -- -- 92
2019-09-24 06:00:00 8.4 21 Oeste 58 Oeste 0 -- -- 88
2019-09-24 05:00:00 9.6 37 Oeste 55 Oeste 0 -- -- 76
2019-09-24 04:00:00 9.5 30 Oeste 48 Oeste 0 -- -- 79
2019-09-24 03:00:00 9.4 23 Oeste 35 Oeste 0 -- -- 90
2019-09-24 02:00:00 9.6 21 Oeste 41 Oeste 0 -- -- 87
2019-09-24 01:00:00 10 17 Oeste 35 Oeste 0 -- -- 84
2019-09-24 00:00:00 11.2 11 Noroeste 20 Oeste 0 -- -- 76
2019-09-23 23:00:00 11.2 12 Noroeste 20 Oeste 0 -- -- 75
2019-09-23 22:00:00 10.1 13 Oeste 19 Oeste 0 -- -- 80
2019-09-23 21:00:00 10 13 Oeste 22 Oeste 0 -- -- 81
2019-09-23 20:00:00 10.2 9 Oeste 24 Oeste 0 -- -- 83
2019-09-23 19:00:00 10.8 14 Oeste 22 Oeste 0 -- -- 79
2019-09-23 18:00:00 11.1 16 Oeste 41 Oeste 0 -- -- 73
2019-09-23 17:00:00 11.5 22 Oeste 35 Oeste 0 -- -- 68
2019-09-23 16:00:00 12 14 Oeste 33 Oeste 0 -- -- 67
2019-09-23 15:00:00 13.2 21 Oeste 35 Oeste 0 -- -- 61
2019-09-23 14:00:00 11.7 27 Oeste 39 Oeste 0 -- -- 53
2019-09-23 13:00:00 11.9 15 Oeste 22 Oeste 0 -- -- 65
2019-09-23 12:00:00 9.5 15 Oeste 26 Oeste 0 -- -- 77
2019-09-23 11:00:00 7.5 23 Oeste 31 Oeste 0 -- -- 85
2019-09-23 10:00:00 7.8 10 Oeste 22 Noroeste 0 -- -- 79
2019-09-23 09:00:00 7.1 11 Oeste 24 Oeste 0 -- -- 83
2019-09-23 08:00:00 7.4 16 Oeste 21 Oeste 0 -- -- 78
2019-09-23 07:00:00 7.2 15 Oeste 18 Noroeste 0 -- -- 78
2019-09-23 06:00:00 7.4 16 Noroeste 19 Noroeste 0 -- -- 76
2019-09-23 05:00:00 7.5 14 Oeste 17 Oeste 0 -- -- 78
2019-09-23 04:00:00 7.9 13 Oeste 15 Oeste 0 -- -- 77
2019-09-23 03:00:00 7.9 10 Noroeste 17 Oeste 0 -- -- 77
2019-09-23 02:00:00 7.6 12 Oeste 16 Oeste 0 -- -- 78
2019-09-23 01:00:00 8 11 Oeste 17 Oeste 0 -- -- 75
2019-09-23 00:00:00 8.4 9 Oeste 13 Oeste 0 -- -- 72
2019-09-22 23:00:00 8.4 9 Oeste 21 Oeste 0 -- -- 73
2019-09-22 22:00:00 9.1 13 Noroeste 22 Oeste 0 -- -- 71
2019-09-22 21:00:00 8.8 9 Oeste 22 Oeste 0 -- -- 72
2019-09-22 20:00:00 9.6 10 Oeste 32 Oeste 0 -- -- 68
2019-09-22 19:00:00 13.5 22 Oeste 39 Oeste 0 -- -- 57
2019-09-22 18:00:00 13.2 26 Oeste 42 Oeste 0 -- -- 60
2019-09-22 17:00:00 12.4 17 Oeste 32 Oeste 0 -- -- 63
2019-09-22 16:00:00 12.2 19 Oeste 37 Oeste 0 -- -- 63
2019-09-22 15:00:00 12.1 23 Oeste 40 Noroeste 0 -- -- 62
2019-09-22 14:00:00 11.8 21 Oeste 42 Oeste 0 -- -- 65
2019-09-22 13:00:00 11.2 23 Oeste 44 Oeste 0 -- -- 66
2019-09-22 12:00:00 9.2 32 Oeste 50 Oeste 0 -- -- 74
2019-09-22 11:00:00 7.4 21 Oeste 33 Oeste 0 -- -- 89
2019-09-22 10:00:00 6.2 19 Oeste 38 Oeste 0 -- -- 97
2019-09-22 09:00:00 6 17 Oeste 36 Oeste 0 -- -- 98
2019-09-22 08:00:00 6 18 Oeste 45 Oeste 0.2 -- -- 94
2019-09-22 07:00:00 5.9 29 Oeste 43 Oeste 0 -- -- 96
2019-09-22 06:00:00 5.7 26 Oeste 39 Noroeste 0 -- -- 99
2019-09-22 05:00:00 6.4 19 Oeste 31 Oeste 0 -- -- 99
2019-09-22 04:00:00 7.2 21 Oeste 41 Sudoeste 0 -- -- 98
2019-09-22 03:00:00 9.4 23 Oeste 71 Oeste 0.2 -- -- 99
2019-09-22 02:00:00 10.6 41 Oeste 85 Oeste 0.8 -- -- 99
2019-09-22 01:00:00 10.9 46 Oeste 68 Oeste 1.6 -- -- 99
2019-09-22 00:00:00 11.1 39 Sudoeste 78 Oeste 3.6 -- -- 99
2019-09-21 23:00:00 11.1 34 Oeste 59 Oeste 3.4 -- -- 99
2019-09-21 22:00:00 11.2 31 Sudoeste 65 Oeste 1.2 -- -- 99
2019-09-21 21:00:00 11.1 50 Oeste 75 Sudoeste 1.2 -- -- 99
2019-09-21 20:00:00 11.1 35 Oeste 75 Oeste 4.2 -- -- 98
2019-09-21 19:00:00 11.1 26 Oeste 50 Oeste 1 -- -- 98
2019-09-21 18:00:00 10.9 29 Oeste 48 Oeste 1 -- -- 98
2019-09-21 17:00:00 10.9 25 Oeste 45 Sudoeste 1 -- -- 98
2019-09-21 16:00:00 10.7 22 Oeste 52 Oeste 1 -- -- 98
2019-09-21 15:00:00 11 14 Oeste 34 Oeste 0.6 -- -- 96
2019-09-21 14:00:00 11.2 24 Oeste 52 Oeste 0 -- -- 87
2019-09-21 13:00:00 10.6 28 Oeste 52 Oeste 0.2 -- -- 93
2019-09-21 12:00:00 10.8 34 Oeste 59 Oeste 0 -- -- 89
2019-09-21 11:00:00 10.2 39 Oeste 60 Oeste 0 -- -- 94
2019-09-21 10:00:00 9.9 35 Oeste 59 Oeste 0 -- -- 95
2019-09-21 09:00:00 9.5 32 Oeste 49 Oeste 0 -- -- 96
2019-09-21 08:00:00 9.4 26 Oeste 48 Oeste 0 -- -- 97
2019-09-21 07:00:00 9.5 29 Oeste 51 Oeste 0.4 -- -- 98
2019-09-21 06:00:00 10.3 18 Oeste 38 Oeste 1.6 -- -- 98
2019-09-21 05:00:00 10.4 24 Oeste 36 Sudoeste 0 -- -- 97
2019-09-21 04:00:00 10.2 15 Sudoeste 34 Sudoeste 0 -- -- 97
2019-09-21 03:00:00 10.2 10 Sudoeste 21 Sudoeste 0 -- -- 97
2019-09-21 02:00:00 10.3 5 Noroeste 43 Sur 0.4 -- -- 97
2019-09-21 01:00:00 10.6 17 Sudoeste 33 Sudoeste 0.2 -- -- 95
2019-09-21 00:00:00 10.7 4 Noroeste 11 Norte 0 -- -- 94
2019-09-20 23:00:00 11 9 Norte 44 Sudoeste 0.4 -- -- 94
2019-09-20 22:00:00 11.2 8 Sur 19 Sur 0 -- -- 92
2019-09-20 21:00:00 11.1 5 Noroeste 27 Este 1.6 -- -- 97
2019-09-20 20:00:00 11.3 18 Sur 36 Este 5.2 -- -- 96
2019-09-20 19:00:00 11.9 20 Sudeste 35 Este 10.6 -- -- 94
2019-09-20 18:00:00 15.1 14 Este 36 Este 0 -- -- 77
2019-09-20 17:00:00 19.6 14 Sudoeste 34 Sudoeste 0 -- -- 56
2019-09-20 16:00:00 18.9 15 Sudoeste 32 Oeste 0 -- -- 59
2019-09-20 15:00:00 17.2 13 Sudoeste 44 Sur 0 -- -- 69
2019-09-20 14:00:00 19.9 17 Sudoeste 30 Sur 0 -- -- 61
2019-09-20 13:00:00 19.8 17 Sudoeste 30 Sudoeste 0 -- -- 56
2019-09-20 12:00:00 19.3 15 Sudoeste 28 Sudoeste 0 -- -- 57
2019-09-20 11:00:00 17.9 4 Sudoeste 14 Sudoeste 0 -- -- 67
2019-09-20 10:00:00 17 3 Sur 8 Sur 0 -- -- 63
2019-09-20 09:00:00 13.1 3 Este 10 Sur 0 -- -- 78
2019-09-20 08:00:00 12.9 6 Sur 8 Sur 0 -- -- 74
2019-09-20 07:00:00 12.7 0 Calma 3 Sudoeste 0 -- -- 81
2019-09-20 06:00:00 12 0 Calma 3 Sudoeste 0 -- -- 87
2019-09-20 05:00:00 12.5 3 Nordeste 6 Este 0 -- -- 85
2019-09-20 04:00:00 12.8 3 Este 10 Este 0 -- -- 85
2019-09-20 03:00:00 12.4 6 Este 14 Este 0 -- -- 83
2019-09-20 02:00:00 11.1 12 Este 15 Este 0 -- -- 83
2019-09-20 01:00:00 11.8 12 Este 15 Este 0 -- -- 80
2019-09-20 00:00:00 12.4 11 Este 14 Este 0 -- -- 78